Time;durP1;ratioP1;P1;durP2;ratioP2;P2;SDS_P1;SDS_P2;PMS_P1;PMS_P2;Temp;Humidity;BMP_temperature;BMP_pressure;BME280_temperature;BME280_humidity;BME280_pressure;Samples;Min_cycle;Max_cycle;Signal;HPM_P1;HPM_P2
2022/06/12 00:01:26;;;;;;;2.60;1.95;;;;;;;;;;5084230;28;20180;-63
2022/06/12 00:03:52;;;;;;;1.85;1.75;;;;;;;;;;5083235;28;20188;-64
2022/06/12 00:06:20;;;;;;;2.95;2.17;;;;;;;;;;5084046;28;20656;-64
2022/06/12 00:08:46;;;;;;;2.47;2.28;;;;;;;;;;5084216;28;20180;-64
2022/06/12 00:11:14;;;;;;;2.13;1.92;;;;;;;;;;5084077;28;20172;-64
2022/06/12 00:13:42;;;;;;;1.80;1.70;;;;;;;;;;5083295;28;20216;-66
2022/06/12 00:16:09;;;;;;;2.20;1.92;;;;;;;;;;5084453;28;20215;-66
2022/06/12 00:18:35;;;;;;;2.60;2.40;;;;;;;;;;5065698;28;20176;-63
2022/06/12 00:21:11;;;;;;;2.20;2.00;;;;;;;;;;5083855;28;20658;-64
2022/06/12 00:23:47;;;;;;;2.33;2.13;;;;;;;;;;5083270;28;20692;-64
2022/06/12 00:26:14;;;;;;;2.42;2.00;;;;;;;;;;5083258;28;20200;-64
2022/06/12 00:28:41;;;;;;;2.45;2.25;;;;;;;;;;5083548;28;20180;-65
2022/06/12 00:31:07;;;;;;;4.15;2.47;;;;;;;;;;5084400;28;20188;-64
2022/06/12 00:33:33;;;;;;;2.92;2.03;;;;;;;;;;5083026;28;20197;-63
2022/06/12 00:35:59;;;;;;;2.67;2.25;;;;;;;;;;5083441;28;20392;-69
2022/06/12 00:38:25;;;;;;;3.30;2.08;;;;;;;;;;5083515;28;20204;-67
2022/06/12 00:40:51;;;;;;;2.65;2.20;;;;;;;;;;5083528;28;20242;-64
2022/06/12 00:43:17;;;;;;;2.05;1.85;;;;;;;;;;5084051;28;20177;-62
2022/06/12 00:45:43;;;;;;;2.10;1.90;;;;;;;;;;5057401;28;20648;-65
2022/06/12 00:48:18;;;;;;;2.03;1.90;;;;;;;;;;5083341;28;20201;-63
2022/06/12 00:51:05;;;;;;;3.33;2.22;;;;;;;;;;5083886;28;20542;-66
2022/06/12 00:53:44;;;;;;;3.92;1.98;;;;;;;;;;5083080;28;20262;-66
2022/06/12 00:56:12;;;;;;;2.80;2.55;;;;;;;;;;5083665;28;20185;-66
2022/06/12 00:58:44;;;;;;;4.47;2.58;;;;;;;;;;5083467;28;20188;-63
2022/06/12 01:01:14;;;;;;;2.85;2.60;;;;;;;;;;5083716;28;20177;-65
2022/06/12 01:06:35;;;;;;;2.95;2.60;;;;;;;;;;5031795;28;20743;-66
2022/06/12 01:09:08;;;;;;;2.28;2.17;;;;;;;;;;5083308;28;20662;-63
2022/06/12 01:11:35;;;;;;;3.35;2.40;;;;;;;;;;5083768;28;20268;-67
2022/06/12 01:14:01;;;;;;;3.17;2.47;;;;;;;;;;5082479;28;20207;-66
2022/06/12 01:16:27;;;;;;;4.60;2.45;;;;;;;;;;5083595;28;20204;-65
2022/06/12 01:18:54;;;;;;;2.47;2.28;;;;;;;;;;5083679;28;20185;-63
2022/06/12 01:21:26;;;;;;;2.65;2.13;;;;;;;;;;5083672;28;20169;-64
2022/06/12 01:23:53;;;;;;;2.42;2.22;;;;;;;;;;5058358;28;20647;-62
2022/06/12 01:26:19;;;;;;;2.60;2.40;;;;;;;;;;5064967;28;20212;-66
2022/06/12 01:28:47;;;;;;;2.15;2.03;;;;;;;;;;5083525;28;20185;-64
2022/06/12 01:31:32;;;;;;;2.70;2.50;;;;;;;;;;5083164;28;20184;-63
2022/06/12 01:33:58;;;;;;;3.13;2.35;;;;;;;;;;5064095;28;20201;-64
2022/06/12 01:36:39;;;;;;;3.85;2.30;;;;;;;;;;5083587;28;20246;-63
2022/06/12 01:39:08;;;;;;;2.95;2.50;;;;;;;;;;5086972;28;20284;-64
2022/06/12 01:41:57;;;;;;;2.65;2.45;;;;;;;;;;5086931;28;20192;-67
2022/06/12 01:44:32;;;;;;;2.55;2.35;;;;;;;;;;5086245;28;20177;-64
2022/06/12 01:47:01;;;;;;;2.83;2.30;;;;;;;;;;5086204;28;20200;-64
2022/06/12 01:49:33;;;;;;;3.00;2.33;;;;;;;;;;5086530;28;20180;-64
2022/06/12 01:52:02;;;;;;;2.95;2.40;;;;;;;;;;5086450;28;20559;-64
2022/06/12 01:54:47;;;;;;;2.42;2.22;;;;;;;;;;5078887;22;20230;-88
2022/06/12 01:57:22;;;;;;;2.33;2.20;;;;;;;;;;5044155;28;20226;-86
2022/06/12 01:59:48;;;;;;;3.28;2.30;;;;;;;;;;5044690;28;20178;-87
2022/06/12 02:02:25;;;;;;;2.90;2.60;;;;;;;;;;5044104;28;20201;-86
2022/06/12 02:05:03;;;;;;;3.28;2.42;;;;;;;;;;5045559;28;20587;-86
2022/06/12 02:07:44;;;;;;;2.60;2.40;;;;;;;;;;5043870;28;20778;-88
2022/06/12 02:10:18;;;;;;;2.63;2.40;;;;;;;;;;5044014;28;20183;-87
2022/06/12 02:15:31;;;;;;;3.20;2.90;;;;;;;;;;5045171;28;20592;-87
2022/06/12 02:18:10;;;;;;;3.42;3.13;;;;;;;;;;5044302;28;20206;-87
2022/06/12 02:20:40;;;;;;;2.90;2.70;;;;;;;;;;5043710;28;20798;-87
2022/06/12 02:23:08;;;;;;;3.30;3.05;;;;;;;;;;5043753;28;20666;-87
2022/06/12 02:25:36;;;;;;;3.42;3.13;;;;;;;;;;5043579;28;20252;-87
2022/06/12 02:28:11;;;;;;;3.35;3.15;;;;;;;;;;5044766;28;20262;-87
2022/06/12 02:30:39;;;;;;;4.85;3.20;;;;;;;;;;5043164;28;20185;-87
2022/06/12 02:33:07;;;;;;;3.63;3.20;;;;;;;;;;5043234;28;20209;-86
2022/06/12 02:35:39;;;;;;;2.97;2.78;;;;;;;;;;5043465;28;20359;-87
2022/06/12 02:38:14;;;;;;;4.60;3.38;;;;;;;;;;5043465;28;20620;-89
2022/06/12 02:40:53;;;;;;;4.57;3.80;;;;;;;;;;5043041;28;20173;-88
2022/06/12 02:43:22;;;;;;;3.92;3.60;;;;;;;;;;5043634;28;20197;-86
2022/06/12 02:45:52;;;;;;;3.50;3.20;;;;;;;;;;5044746;28;20182;-87
2022/06/12 02:48:18;;;;;;;3.95;3.45;;;;;;;;;;5042952;28;20194;-87
2022/06/12 02:50:50;;;;;;;3.65;3.35;;;;;;;;;;5043283;28;20669;-86
2022/06/12 02:53:21;;;;;;;3.88;3.45;;;;;;;;;;5043125;28;20208;-87
2022/06/12 02:55:51;;;;;;;3.60;3.30;;;;;;;;;;5043348;28;20190;-87
2022/06/12 02:58:19;;;;;;;4.35;3.60;;;;;;;;;;5042934;28;20301;-88
2022/06/12 03:00:51;;;;;;;3.97;3.58;;;;;;;;;;5043634;28;20177;-87
2022/06/12 03:03:26;;;;;;;3.15;2.95;;;;;;;;;;5042768;28;20286;-87
2022/06/12 03:05:54;;;;;;;4.45;3.28;;;;;;;;;;5042793;28;20185;-86
2022/06/12 03:08:22;;;;;;;3.88;3.58;;;;;;;;;;5042744;28;20206;-86
2022/06/12 03:10:52;;;;;;;3.70;3.40;;;;;;;;;;5044250;28;20256;-84
2022/06/12 03:13:19;;;;;;;3.60;3.25;;;;;;;;;;5042950;28;20305;-84
2022/06/12 03:16:08;;;;;;;3.78;3.35;;;;;;;;;;5042470;28;20180;-87
2022/06/12 03:18:38;;;;;;;3.53;3.22;;;;;;;;;;5029723;28;20194;-85
2022/06/12 03:21:22;;;;;;;4.03;3.13;;;;;;;;;;5043645;28;20511;-85
2022/06/12 03:24:07;;;;;;;3.85;3.45;;;;;;;;;;5042485;28;20208;-84
2022/06/12 03:26:33;;;;;;;3.50;3.20;;;;;;;;;;5042709;28;20292;-87
2022/06/12 03:29:08;;;;;;;4.88;3.03;;;;;;;;;;5042231;28;20186;-88
2022/06/12 03:32:00;;;;;;;3.42;3.13;;;;;;;;;;5042462;28;20190;-88
2022/06/12 03:34:29;;;;;;;4.03;2.95;;;;;;;;;;5043226;28;20696;-84
2022/06/12 03:36:58;;;;;;;5.05;2.97;;;;;;;;;;5042527;28;20214;-87
2022/06/12 03:39:29;;;;;;;3.15;2.92;;;;;;;;;;5042736;28;20174;-87
2022/06/12 03:41:55;;;;;;;4.82;3.10;;;;;;;;;;5042595;28;20178;-86
2022/06/12 03:44:38;;;;;;;4.93;3.15;;;;;;;;;;5042217;28;20192;-87
2022/06/12 03:47:04;;;;;;;4.53;3.10;;;;;;;;;;5042074;28;20284;-86
2022/06/12 03:49:37;;;;;;;3.67;3.05;;;;;;;;;;5042557;28;20281;-88
2022/06/12 03:52:12;;;;;;;4.07;3.00;;;;;;;;;;5042173;28;20186;-87
2022/06/12 03:54:39;;;;;;;4.97;3.20;;;;;;;;;;5041554;28;20201;-88
2022/06/12 03:59:59;;;;;;;5.97;3.20;;;;;;;;;;5042875;28;20212;-87
2022/06/12 04:02:26;;;;;;;3.85;3.08;;;;;;;;;;5042048;28;20209;-88
2022/06/12 04:04:53;;;;;;;4.28;2.85;;;;;;;;;;5042024;28;20190;-88
2022/06/12 04:07:21;;;;;;;3.83;2.83;;;;;;;;;;5041645;28;20635;-88
2022/06/12 04:09:48;;;;;;;4.85;3.10;;;;;;;;;;5041804;28;20209;-87
2022/06/12 04:12:19;;;;;;;4.68;3.20;;;;;;;;;;5041496;28;20194;-87
2022/06/12 04:14:53;;;;;;;6.07;3.50;;;;;;;;;;5041760;28;20195;-88
2022/06/12 04:17:22;;;;;;;6.03;3.33;;;;;;;;;;5041732;28;20206;-88
2022/06/12 04:20:00;;;;;;;4.68;3.22;;;;;;;;;;5043765;28;21027;-87
2022/06/12 04:22:33;;;;;;;6.40;3.70;;;;;;;;;;5041504;28;20178;-87
2022/06/12 04:25:02;;;;;;;5.50;3.35;;;;;;;;;;5041708;28;20193;-87
2022/06/12 04:27:40;;;;;;;3.97;3.05;;;;;;;;;;5041488;28;20202;-88
2022/06/12 04:30:17;;;;;;;8.63;3.45;;;;;;;;;;5041888;28;20178;-87
2022/06/12 04:32:43;;;;;;;7.57;3.80;;;;;;;;;;5041985;28;20200;-86
2022/06/12 04:35:09;;;;;;;4.90;3.63;;;;;;;;;;5041763;28;20674;-87
2022/06/12 04:37:35;;;;;;;6.70;3.53;;;;;;;;;;5041277;28;20207;-87
2022/06/12 04:40:03;;;;;;;4.25;3.80;;;;;;;;;;5042857;28;20666;-86
2022/06/12 04:42:31;;;;;;;5.28;3.85;;;;;;;;;;5042826;28;20221;-86
2022/06/12 04:45:00;;;;;;;6.20;3.80;;;;;;;;;;5041460;28;20194;-85
2022/06/12 04:47:27;;;;;;;4.70;3.15;;;;;;;;;;5041098;28;20579;-85
2022/06/12 04:49:53;;;;;;;6.80;3.78;;;;;;;;;;5041799;28;20212;-84
2022/06/12 04:52:21;;;;;;;8.43;4.68;;;;;;;;;;5041343;28;20248;-85
2022/06/12 04:54:47;;;;;;;6.72;4.00;;;;;;;;;;5040697;28;20224;-86
2022/06/12 04:57:14;;;;;;;4.95;3.90;;;;;;;;;;5041326;28;20570;-86
2022/06/12 04:59:41;;;;;;;5.55;3.30;;;;;;;;;;5042960;28;20183;-86
2022/06/12 05:02:07;;;;;;;4.43;3.28;;;;;;;;;;5041951;28;20660;-86
2022/06/12 05:04:35;;;;;;;5.70;3.15;;;;;;;;;;5040838;28;20306;-85
2022/06/12 05:07:01;;;;;;;6.03;3.25;;;;;;;;;;5041789;28;20221;-86
2022/06/12 05:09:29;;;;;;;5.95;3.40;;;;;;;;;;5040612;28;20232;-87
2022/06/12 05:11:55;;;;;;;6.82;3.42;;;;;;;;;;5042438;28;20183;-85
2022/06/12 05:14:21;;;;;;;4.63;2.67;;;;;;;;;;5046430;28;20206;-86
2022/06/12 05:16:49;;;;;;;4.90;2.90;;;;;;;;;;5045890;28;20280;-86
2022/06/12 05:19:16;;;;;;;6.90;3.10;;;;;;;;;;5045370;28;20182;-86
2022/06/12 05:21:43;;;;;;;8.82;3.50;;;;;;;;;;5044578;28;20182;-87
2022/06/12 05:24:09;;;;;;;5.32;2.80;;;;;;;;;;5044547;28;20276;-87
2022/06/12 05:26:36;;;;;;;4.22;3.22;;;;;;;;;;5044797;28;20206;-85
2022/06/12 05:29:03;;;;;;;5.68;3.60;;;;;;;;;;5044643;28;20190;-85
2022/06/12 05:31:30;;;;;;;3.95;2.92;;;;;;;;;;5044397;28;20186;-85
2022/06/12 05:33:56;;;;;;;5.00;2.80;;;;;;;;;;5044788;28;20348;-84
2022/06/12 05:36:22;;;;;;;5.05;2.85;;;;;;;;;;5044307;28;20308;-83
2022/06/12 05:38:48;;;;;;;5.70;3.55;;;;;;;;;;5044805;28;20178;-86
2022/06/12 05:41:14;;;;;;;4.70;2.88;;;;;;;;;;5046011;28;20208;-86
2022/06/12 05:43:41;;;;;;;6.03;2.95;;;;;;;;;;5044844;28;20186;-88
2022/06/12 05:46:08;;;;;;;4.55;2.60;;;;;;;;;;5044474;28;20190;-86
2022/06/12 05:48:35;;;;;;;4.43;2.90;;;;;;;;;;5044383;28;20221;-85
2022/06/12 05:51:01;;;;;;;4.28;2.72;;;;;;;;;;5043957;28;20193;-85
2022/06/12 05:53:28;;;;;;;7.25;3.15;;;;;;;;;;5043596;28;20386;-84
2022/06/12 05:55:54;;;;;;;4.47;2.90;;;;;;;;;;5045441;28;20265;-85
2022/06/12 05:58:21;;;;;;;4.38;2.63;;;;;;;;;;5043330;28;20202;-84
2022/06/12 06:00:48;;;;;;;6.15;3.45;;;;;;;;;;5045864;28;20235;-84
2022/06/12 06:03:14;;;;;;;5.07;3.40;;;;;;;;;;5043827;28;20204;-84
2022/06/12 06:05:41;;;;;;;4.57;3.10;;;;;;;;;;5044631;28;20209;-84
2022/06/12 06:08:08;;;;;;;6.90;3.13;;;;;;;;;;5043955;28;20205;-85
2022/06/12 06:10:34;;;;;;;6.93;3.50;;;;;;;;;;5043804;28;20638;-85
2022/06/12 06:13:00;;;;;;;7.22;3.00;;;;;;;;;;5044697;28;20376;-82
2022/06/12 06:15:26;;;;;;;5.63;2.50;;;;;;;;;;5043654;28;20261;-86
2022/06/12 06:17:53;;;;;;;5.28;2.88;;;;;;;;;;5043885;28;20284;-83
2022/06/12 06:20:22;;;;;;;5.05;3.33;;;;;;;;;;5043700;28;20178;-82
2022/06/12 06:22:48;;;;;;;4.13;2.70;;;;;;;;;;5043460;28;20260;-85
2022/06/12 06:25:14;;;;;;;6.18;2.88;;;;;;;;;;5043391;28;20178;-85
2022/06/12 06:27:40;;;;;;;6.95;3.30;;;;;;;;;;5042392;28;20221;-85
2022/06/12 06:30:06;;;;;;;6.68;2.92;;;;;;;;;;5043624;28;20178;-86
2022/06/12 06:32:32;;;;;;;5.55;3.10;;;;;;;;;;5042352;28;20193;-85
2022/06/12 06:34:59;;;;;;;7.38;3.22;;;;;;;;;;5044330;28;20213;-86
2022/06/12 06:37:25;;;;;;;4.78;2.78;;;;;;;;;;5042172;28;20511;-87
2022/06/12 06:39:51;;;;;;;5.28;3.05;;;;;;;;;;5044333;28;20261;-87
2022/06/12 06:42:17;;;;;;;4.65;2.88;;;;;;;;;;5044079;28;20185;-87
2022/06/12 06:47:28;;;;;;;5.32;3.10;;;;;;;;;;5045467;28;20217;-87
2022/06/12 06:49:54;;;;;;;7.53;3.38;;;;;;;;;;5044679;28;20182;-85
2022/06/12 06:52:20;;;;;;;4.00;2.58;;;;;;;;;;5044719;28;20232;-86
2022/06/12 06:54:46;;;;;;;5.93;2.80;;;;;;;;;;5042741;28;20229;-85
2022/06/12 06:57:13;;;;;;;4.75;2.65;;;;;;;;;;5043632;28;20680;-86
2022/06/12 06:59:39;;;;;;;6.15;2.83;;;;;;;;;;5042336;28;20218;-86
2022/06/12 07:02:05;;;;;;;5.40;2.90;;;;;;;;;;5041714;28;20174;-84
2022/06/12 07:04:32;;;;;;;5.07;3.00;;;;;;;;;;5041673;28;20194;-86
2022/06/12 07:06:58;;;;;;;6.40;3.15;;;;;;;;;;5043060;28;20206;-84
2022/06/12 07:09:24;;;;;;;5.68;2.83;;;;;;;;;;5042106;28;20214;-85
2022/06/12 07:11:50;;;;;;;9.35;3.03;;;;;;;;;;5043819;28;20182;-86
2022/06/12 07:14:16;;;;;;;6.10;3.03;;;;;;;;;;5040563;28;20247;-85
2022/06/12 07:16:42;;;;;;;6.22;2.95;;;;;;;;;;5042165;28;20201;-86
2022/06/12 07:19:09;;;;;;;4.57;3.10;;;;;;;;;;5041952;28;20786;-86
2022/06/12 07:21:35;;;;;;;5.15;2.83;;;;;;;;;;5042479;28;20174;-86
2022/06/12 07:24:01;;;;;;;5.15;2.85;;;;;;;;;;5041993;28;20775;-85
2022/06/12 07:26:38;;;;;;;5.20;3.20;;;;;;;;;;5041706;28;20209;-84
2022/06/12 07:29:04;;;;;;;4.97;2.90;;;;;;;;;;5042063;28;20178;-86
2022/06/12 07:31:30;;;;;;;7.45;3.35;;;;;;;;;;5041740;28;20182;-85
2022/06/12 07:33:56;;;;;;;7.30;2.95;;;;;;;;;;5041219;28;20563;-85
2022/06/12 07:36:22;;;;;;;6.28;2.60;;;;;;;;;;5040839;28;20194;-84
2022/06/12 07:38:49;;;;;;;6.03;2.65;;;;;;;;;;5041908;28;20429;-84
2022/06/12 07:41:16;;;;;;;10.55;3.35;;;;;;;;;;5041899;28;20612;-84
2022/06/12 07:43:42;;;;;;;5.95;2.63;;;;;;;;;;5041871;28;20206;-84
2022/06/12 07:46:10;;;;;;;4.22;2.33;;;;;;;;;;5041772;28;20209;-85
2022/06/12 07:48:36;;;;;;;4.88;2.15;;;;;;;;;;5041073;28;20185;-85
2022/06/12 07:51:05;;;;;;;6.93;2.22;;;;;;;;;;5041329;28;20659;-85
2022/06/12 07:53:31;;;;;;;4.13;1.60;;;;;;;;;;5042761;28;20481;-84
2022/06/12 07:55:58;;;;;;;4.97;1.80;;;;;;;;;;5041426;28;20671;-85
2022/06/12 07:58:24;;;;;;;5.03;1.95;;;;;;;;;;5042275;28;20620;-86
2022/06/12 08:00:52;;;;;;;6.72;2.33;;;;;;;;;;5041795;28;20323;-83
2022/06/12 08:03:18;;;;;;;5.88;1.95;;;;;;;;;;5042053;28;20213;-85
2022/06/12 08:05:44;;;;;;;5.70;1.98;;;;;;;;;;5041410;28;20189;-85
2022/06/12 08:08:10;;;;;;;5.45;2.00;;;;;;;;;;5040946;28;20259;-85
2022/06/12 08:10:36;;;;;;;7.63;2.20;;;;;;;;;;5041489;28;20218;-83
2022/06/12 08:13:04;;;;;;;5.28;1.80;;;;;;;;;;5041268;28;20294;-84
2022/06/12 08:15:30;;;;;;;6.30;2.03;;;;;;;;;;5040615;28;20332;-83
2022/06/12 08:17:57;;;;;;;5.07;1.83;;;;;;;;;;5041570;28;20296;-83
2022/06/12 08:20:28;;;;;;;5.32;1.70;;;;;;;;;;5041262;28;20179;-84
2022/06/12 08:23:00;;;;;;;4.75;1.67;;;;;;;;;;5041213;28;20170;-84
2022/06/12 08:25:27;;;;;;;3.88;1.55;;;;;;;;;;5040879;28;20549;-84
2022/06/12 08:27:53;;;;;;;3.65;1.58;;;;;;;;;;5040513;28;20578;-84
2022/06/12 08:30:19;;;;;;;4.05;1.40;;;;;;;;;;5041109;28;20667;-84
2022/06/12 08:32:46;;;;;;;3.60;1.60;;;;;;;;;;5041110;28;20191;-84
2022/06/12 08:35:15;;;;;;;2.65;1.58;;;;;;;;;;5040520;28;20599;-85
2022/06/12 08:37:41;;;;;;;3.58;1.70;;;;;;;;;;5040839;28;20248;-85
2022/06/12 08:40:25;;;;;;;5.90;1.83;;;;;;;;;;5043897;28;20231;-86
2022/06/12 08:42:59;;;;;;;4.50;1.88;;;;;;;;;;5041931;28;20181;-86
2022/06/12 08:45:29;;;;;;;5.15;1.90;;;;;;;;;;5041278;28;20266;-83
2022/06/12 08:47:54;;;;;;;3.83;1.75;;;;;;;;;;5045050;28;20222;-84
2022/06/12 08:50:38;;;;;;;3.80;1.80;;;;;;;;;;5044832;28;20178;-83
2022/06/12 08:53:10;;;;;;;3.65;1.40;;;;;;;;;;5044915;28;20174;-83
2022/06/12 08:55:49;;;;;;;3.65;1.50;;;;;;;;;;5044819;28;20190;-84
2022/06/12 08:58:18;;;;;;;4.93;2.10;;;;;;;;;;5044849;28;20672;-83
2022/06/12 09:00:45;;;;;;;4.97;1.77;;;;;;;;;;5044818;28;20689;-84
2022/06/12 09:03:19;;;;;;;5.43;1.80;;;;;;;;;;5044543;28;20648;-83
2022/06/12 09:05:48;;;;;;;7.45;2.05;;;;;;;;;;5044665;28;20725;-85
2022/06/12 09:08:21;;;;;;;4.20;1.70;;;;;;;;;;5044274;28;20221;-85
2022/06/12 09:10:53;;;;;;;5.22;1.80;;;;;;;;;;5044756;28;20240;-83
2022/06/12 09:13:31;;;;;;;5.18;2.20;;;;;;;;;;5044783;28;20249;-84
2022/06/12 09:16:00;;;;;;;7.85;2.08;;;;;;;;;;5045960;28;20194;-84
2022/06/12 09:18:49;;;;;;;4.85;1.70;;;;;;;;;;5044179;28;20202;-84
2022/06/12 09:21:18;;;;;;;6.57;1.65;;;;;;;;;;5046429;28;20182;-84
2022/06/12 09:23:53;;;;;;;4.35;1.52;;;;;;;;;;5046308;28;20213;-84
2022/06/12 09:26:31;;;;;;;3.78;1.67;;;;;;;;;;5044038;28;20348;-84
2022/06/12 09:29:02;;;;;;;4.70;1.65;;;;;;;;;;5043832;28;20220;-85
2022/06/12 09:31:31;;;;;;;5.80;2.13;;;;;;;;;;5042806;28;20428;-84
2022/06/12 09:34:06;;;;;;;4.28;1.83;;;;;;;;;;5042752;28;20206;-84
2022/06/12 09:36:52;;;;;;;5.55;1.80;;;;;;;;;;5043988;28;20206;-84
2022/06/12 09:39:24;;;;;;;4.65;1.70;;;;;;;;;;5043759;28;20197;-84
2022/06/12 09:42:11;;;;;;;4.15;1.70;;;;;;;;;;5044094;28;20329;-84
2022/06/12 09:44:44;;;;;;;2.55;1.30;;;;;;;;;;5045561;28;20186;-86
2022/06/12 09:47:12;;;;;;;4.32;1.65;;;;;;;;;;5044611;28;20263;-87
2022/06/12 09:49:42;;;;;;;4.05;1.58;;;;;;;;;;5045541;28;20182;-87
2022/06/12 09:52:20;;;;;;;3.33;1.80;;;;;;;;;;5046002;28;20182;-86
2022/06/12 09:54:49;;;;;;;4.30;1.95;;;;;;;;;;5043727;28;20202;-86
2022/06/12 09:57:21;;;;;;;4.25;1.55;;;;;;;;;;5044218;28;20229;-87
2022/06/12 09:59:47;;;;;;;5.13;1.70;;;;;;;;;;5044878;28;20174;-86
2022/06/12 10:02:22;;;;;;;5.15;1.70;;;;;;;;;;5043710;28;20185;-86
2022/06/12 10:05:01;;;;;;;6.88;2.22;;;;;;;;;;5044154;28;20189;-86
2022/06/12 10:07:34;;;;;;;5.68;2.05;;;;;;;;;;5043129;28;20292;-86
2022/06/12 10:10:05;;;;;;;4.13;1.85;;;;;;;;;;5043862;28;20236;-86
2022/06/12 10:12:36;;;;;;;4.45;1.60;;;;;;;;;;5044389;28;20194;-86
2022/06/12 10:15:05;;;;;;;5.18;1.83;;;;;;;;;;5043402;28;20212;-86
2022/06/12 10:17:37;;;;;;;4.32;1.63;;;;;;;;;;5044412;28;20213;-86
2022/06/12 10:20:03;;;;;;;6.00;2.00;;;;;;;;;;5043151;28;20189;-86
2022/06/12 10:22:33;;;;;;;5.10;2.00;;;;;;;;;;5042531;28;20217;-87
2022/06/12 10:25:00;;;;;;;4.05;1.63;;;;;;;;;;5043996;28;20232;-86
2022/06/12 10:27:37;;;;;;;5.20;2.00;;;;;;;;;;5044712;28;20226;-86
2022/06/12 10:30:04;;;;;;;3.90;1.58;;;;;;;;;;5046543;28;20716;-88
2022/06/12 10:32:47;;;;;;;4.35;1.70;;;;;;;;;;5044336;28;20273;-84
2022/06/12 10:35:17;;;;;;;5.47;1.80;;;;;;;;;;5044002;28;20212;-84
2022/06/12 10:37:43;;;;;;;6.07;1.67;;;;;;;;;;5042259;28;20198;-83
2022/06/12 10:40:29;;;;;;;5.28;1.65;;;;;;;;;;5043215;28;20235;-83
2022/06/12 10:43:02;;;;;;;7.28;2.10;;;;;;;;;;5059010;28;20186;-83
2022/06/12 10:45:28;;;;;;;5.28;1.80;;;;;;;;;;5044349;28;20175;-83
2022/06/12 10:47:56;;;;;;;2.85;1.52;;;;;;;;;;5042318;28;20194;-82
2022/06/12 10:50:25;;;;;;;3.63;1.58;;;;;;;;;;5042713;28;20182;-83
2022/06/12 10:52:52;;;;;;;3.92;1.60;;;;;;;;;;5045083;28;20189;-82
2022/06/12 10:55:22;;;;;;;4.55;1.58;;;;;;;;;;5044737;28;20691;-83
2022/06/12 10:57:51;;;;;;;4.82;1.80;;;;;;;;;;5043835;28;20247;-82
2022/06/12 11:00:18;;;;;;;3.80;1.60;;;;;;;;;;5042605;28;20395;-82
2022/06/12 11:02:44;;;;;;;4.65;1.50;;;;;;;;;;5042213;28;20175;-83
2022/06/12 11:05:29;;;;;;;4.63;1.60;;;;;;;;;;5043923;28;20190;-83
2022/06/12 11:07:58;;;;;;;3.80;1.90;;;;;;;;;;5042497;28;20232;-84
2022/06/12 11:10:34;;;;;;;2.47;1.42;;;;;;;;;;5044070;28;20181;-89
2022/06/12 11:13:16;;;;;;;3.35;1.65;;;;;;;;;;5046148;28;20267;-83
2022/06/12 11:15:54;;;;;;;3.47;1.40;;;;;;;;;;5041924;28;20270;-83
2022/06/12 11:18:29;;;;;;;5.18;1.45;;;;;;;;;;5042563;28;20713;-84
2022/06/12 11:20:58;;;;;;;2.72;1.38;;;;;;;;;;5043361;28;20182;-88
2022/06/12 11:23:27;;;;;;;2.97;1.30;;;;;;;;;;5042994;28;20205;-88
2022/06/12 11:26:02;;;;;;;3.65;1.10;;;;;;;;;;5041887;28;20651;-85
2022/06/12 11:28:47;;;;;;;3.08;1.30;;;;;;;;;;5042924;28;20285;-86
2022/06/12 11:31:20;;;;;;;3.30;1.50;;;;;;;;;;5042189;28;20196;-88
2022/06/12 11:34:01;;;;;;;2.90;1.30;;;;;;;;;;5042227;28;20292;-87
2022/06/12 11:36:31;;;;;;;5.05;1.40;;;;;;;;;;5041740;28;20240;-87
2022/06/12 11:39:14;;;;;;;4.53;1.52;;;;;;;;;;5041836;28;20411;-86
2022/06/12 11:41:49;;;;;;;4.30;1.40;;;;;;;;;;5042105;28;20190;-87
2022/06/12 11:44:15;;;;;;;4.45;1.27;;;;;;;;;;5041033;28;20543;-88
2022/06/12 11:46:56;;;;;;;5.18;1.70;;;;;;;;;;5041630;28;20209;-88
2022/06/12 11:49:28;;;;;;;2.47;1.20;;;;;;;;;;5041777;28;20663;-87
2022/06/12 11:51:57;;;;;;;4.90;1.20;;;;;;;;;;5041888;28;20189;-87
2022/06/12 11:54:27;;;;;;;2.85;1.23;;;;;;;;;;5041694;28;20206;-88
2022/06/12 11:57:12;;;;;;;5.00;1.33;;;;;;;;;;5042007;28;20710;-88
2022/06/12 11:59:38;;;;;;;2.10;0.93;;;;;;;;;;5041168;28;20756;-86
2022/06/12 12:02:23;;;;;;;3.03;1.40;;;;;;;;;;5041877;28;20600;-88
2022/06/12 12:05:07;;;;;;;3.00;1.27;;;;;;;;;;5041156;28;20186;-88
2022/06/12 12:07:39;;;;;;;3.20;1.33;;;;;;;;;;5040884;28;20700;-88
2022/06/12 12:10:30;;;;;;;4.00;1.50;;;;;;;;;;5041103;28;20273;-88
2022/06/12 12:13:00;;;;;;;2.22;1.20;;;;;;;;;;5041260;28;20707;-87
2022/06/12 12:15:29;;;;;;;3.03;1.20;;;;;;;;;;5041096;28;20178;-88
2022/06/12 12:17:57;;;;;;;3.20;1.40;;;;;;;;;;5040752;28;20687;-86
2022/06/12 12:20:22;;;;;;;4.55;1.60;;;;;;;;;;5040717;28;20441;-88
2022/06/12 12:22:49;;;;;;;2.17;1.17;;;;;;;;;;5041345;28;20188;-87
2022/06/12 12:25:15;;;;;;;6.30;1.63;;;;;;;;;;5042870;28;20193;-86
2022/06/12 12:27:43;;;;;;;2.83;1.20;;;;;;;;;;5040827;28;20778;-85
2022/06/12 12:30:15;;;;;;;3.22;1.50;;;;;;;;;;5041116;28;20514;-88
2022/06/12 12:32:41;;;;;;;2.72;1.20;;;;;;;;;;5041102;28;20189;-86
2022/06/12 12:41:11;;;;;;;2.78;1.35;;;;;;;;;;5040889;28;20194;-88
2022/06/12 12:43:25;;;;;;;3.80;1.30;;;;;;;;;;5042699;28;20269;-88
2022/06/12 12:46:02;;;;;;;2.70;1.33;;;;;;;;;;5040831;28;20591;-88
2022/06/12 12:48:37;;;;;;;3.33;1.50;;;;;;;;;;5040214;28;20720;-86
2022/06/12 12:51:03;;;;;;;3.78;1.40;;;;;;;;;;5041467;28;20182;-88
2022/06/12 12:53:34;;;;;;;2.95;1.20;;;;;;;;;;5040298;28;20217;-87
2022/06/12 12:56:00;;;;;;;3.85;1.30;;;;;;;;;;5040786;28;20925;-88
2022/06/12 12:58:26;;;;;;;3.30;1.27;;;;;;;;;;5040308;28;20198;-87
2022/06/12 13:01:06;;;;;;;4.05;1.70;;;;;;;;;;5041014;28;20592;-87
2022/06/12 13:03:38;;;;;;;4.70;1.33;;;;;;;;;;5041524;28;20185;-88
2022/06/12 13:06:10;;;;;;;5.65;1.98;;;;;;;;;;5040909;28;20186;-88
2022/06/12 13:08:36;;;;;;;5.65;1.95;;;;;;;;;;5040347;28;20194;-87
2022/06/12 13:11:20;;;;;;;4.00;1.25;;;;;;;;;;5041021;28;20178;-88
2022/06/12 13:13:58;;;;;;;6.05;1.92;;;;;;;;;;5040801;28;20209;-88
2022/06/12 13:16:24;;;;;;;5.38;1.55;;;;;;;;;;5040940;28;20178;-88
2022/06/12 13:18:53;;;;;;;2.67;1.17;;;;;;;;;;5041083;28;20525;-88
2022/06/12 13:21:22;;;;;;;2.42;1.30;;;;;;;;;;5040490;28;20182;-87
2022/06/12 13:23:55;;;;;;;2.72;1.40;;;;;;;;;;5040434;28;20672;-88
2022/06/12 13:26:21;;;;;;;3.47;1.67;;;;;;;;;;5041495;28;20208;-87
2022/06/12 13:28:56;;;;;;;3.85;1.52;;;;;;;;;;5040227;28;20859;-86
2022/06/12 13:31:22;;;;;;;4.32;1.50;;;;;;;;;;5040044;28;20435;-88
2022/06/12 13:33:56;;;;;;;2.95;1.40;;;;;;;;;;5042941;28;20202;-87
2022/06/12 13:36:26;;;;;;;4.40;1.60;;;;;;;;;;5043645;28;20206;-86
2022/06/12 13:38:52;;;;;;;2.70;1.10;;;;;;;;;;5045566;28;20174;-85
2022/06/12 13:41:26;;;;;;;4.03;1.55;;;;;;;;;;5045776;28;20190;-86
2022/06/12 13:43:55;;;;;;;4.75;1.80;;;;;;;;;;5044807;28;20216;-86
2022/06/12 13:46:29;;;;;;;3.45;1.40;;;;;;;;;;5047103;28;20178;-87
2022/06/12 13:48:56;;;;;;;4.40;1.80;;;;;;;;;;5047552;28;20185;-85
2022/06/12 13:51:40;;;;;;;2.85;1.65;;;;;;;;;;5044201;28;20248;-86
2022/06/12 13:54:14;;;;;;;5.70;1.55;;;;;;;;;;5044503;28;20214;-87
2022/06/12 13:56:49;;;;;;;3.03;1.50;;;;;;;;;;5045152;28;20217;-84
2022/06/12 13:59:19;;;;;;;2.35;1.33;;;;;;;;;;5043802;28;20173;-85
2022/06/12 14:01:46;;;;;;;4.50;1.73;;;;;;;;;;5041982;28;20746;-85
2022/06/12 14:04:25;;;;;;;4.05;1.58;;;;;;;;;;5045320;28;20529;-85
2022/06/12 14:06:52;;;;;;;5.13;1.90;;;;;;;;;;5043863;28;20206;-87
2022/06/12 14:09:21;;;;;;;3.83;1.70;;;;;;;;;;5043021;28;20289;-85
2022/06/12 14:11:47;;;;;;;3.67;1.40;;;;;;;;;;5045073;28;20185;-86
2022/06/12 14:14:32;;;;;;;2.42;1.35;;;;;;;;;;5043363;28;20574;-88
2022/06/12 14:16:59;;;;;;;3.03;1.38;;;;;;;;;;5043299;28;20206;-87
2022/06/12 14:19:32;;;;;;;2.58;1.33;;;;;;;;;;5041801;28;20193;-88
2022/06/12 14:21:59;;;;;;;3.78;1.52;;;;;;;;;;5041465;28;20668;-87
2022/06/12 14:24:28;;;;;;;4.15;1.80;;;;;;;;;;5041855;28;20672;-87
2022/06/12 14:26:55;;;;;;;3.40;1.48;;;;;;;;;;5042612;28;20210;-87
2022/06/12 14:29:33;;;;;;;4.70;1.40;;;;;;;;;;5042360;28;20200;-88
2022/06/12 14:32:06;;;;;;;4.47;1.80;;;;;;;;;;5041185;28;20181;-83
2022/06/12 14:34:32;;;;;;;4.13;1.45;;;;;;;;;;5041916;28;20702;-84
2022/06/12 14:37:00;;;;;;;4.05;1.38;;;;;;;;;;5041768;28;20202;-83
2022/06/12 14:39:32;;;;;;;4.00;1.30;;;;;;;;;;5042551;28;20185;-83
2022/06/12 14:42:18;;;;;;;3.78;1.23;;;;;;;;;;5043138;28;20679;-83
2022/06/12 14:44:44;;;;;;;3.67;1.50;;;;;;;;;;5045503;28;20182;-82
2022/06/12 14:47:17;;;;;;;4.72;1.70;;;;;;;;;;5043694;28;20206;-84
2022/06/12 14:49:43;;;;;;;4.22;1.48;;;;;;;;;;5043593;28;20183;-82
2022/06/12 14:52:10;;;;;;;3.72;1.63;;;;;;;;;;5043188;28;20192;-83
2022/06/12 14:54:36;;;;;;;2.83;1.20;;;;;;;;;;5043467;28;20379;-83
2022/06/12 14:57:02;;;;;;;2.65;1.50;;;;;;;;;;5042215;28;20244;-83
2022/06/12 14:59:29;;;;;;;2.85;1.90;;;;;;;;;;5042972;28;20187;-82
2022/06/12 15:01:56;;;;;;;4.25;1.50;;;;;;;;;;5043716;28;20671;-83
2022/06/12 15:04:23;;;;;;;4.47;1.70;;;;;;;;;;5042149;28;20177;-83
2022/06/12 15:06:48;;;;;;;3.72;1.63;;;;;;;;;;5042331;28;20205;-83
2022/06/12 15:09:15;;;;;;;6.22;1.48;;;;;;;;;;5043027;28;20668;-83
2022/06/12 15:11:41;;;;;;;2.83;1.25;;;;;;;;;;5042633;28;20280;-84
2022/06/12 15:14:07;;;;;;;2.83;0.98;;;;;;;;;;5042078;28;20206;-82
2022/06/12 15:16:34;;;;;;;2.72;1.10;;;;;;;;;;5042332;28;20206;-83
2022/06/12 15:19:00;;;;;;;6.38;4.07;;;;;;;;;;5043237;28;20271;-83